createdAt,value
2023-01-22T00:01:42.879Z,-1.10
2023-01-22T00:05:04.989Z,-1.10
2023-01-22T00:08:26.616Z,-1.10
2023-01-22T00:11:49.558Z,-1.10
2023-01-22T00:15:11.539Z,-1.10
2023-01-22T00:18:33.132Z,-1.10
2023-01-22T00:21:54.754Z,-1.10
2023-01-22T00:25:16.444Z,-1.10
2023-01-22T00:28:39.645Z,-1.10
2023-01-22T00:32:01.290Z,-1.10
2023-01-22T00:35:23.011Z,-1.10
2023-01-22T00:38:44.917Z,-1.00
2023-01-22T00:42:06.508Z,-1.00
2023-01-22T00:45:29.453Z,-1.00
2023-01-22T00:48:51.117Z,-1.00
2023-01-22T00:52:12.713Z,-1.00
2023-01-22T00:55:34.311Z,-0.90
2023-01-22T00:58:57.742Z,-1.00
2023-01-22T01:02:21.566Z,-0.90
2023-01-22T01:05:43.176Z,-0.90
2023-01-22T01:09:04.744Z,-0.90
2023-01-22T01:12:26.353Z,-0.90
2023-01-22T01:15:47.996Z,-0.90
2023-01-22T01:19:12.263Z,-0.80
2023-01-22T01:22:33.853Z,-0.90
2023-01-22T01:25:55.890Z,-0.80
2023-01-22T01:29:17.592Z,-0.80
2023-01-22T01:32:39.191Z,-0.80
2023-01-22T01:36:03.164Z,-0.80
2023-01-22T01:39:24.738Z,-0.80
2023-01-22T01:42:46.308Z,-0.80
2023-01-22T01:46:15.320Z,-0.80
2023-01-22T01:49:38.893Z,-0.80
2023-01-22T01:53:02.129Z,-0.80
2023-01-22T01:56:25.718Z,-0.80
2023-01-22T01:59:47.564Z,-0.70
2023-01-22T02:03:09.217Z,-0.80
2023-01-22T02:06:30.856Z,-0.80
2023-01-22T02:09:53.849Z,-0.80
2023-01-22T02:13:17.832Z,-0.80
2023-01-22T02:16:39.474Z,-0.80
2023-01-22T02:20:01.096Z,-0.80
2023-01-22T02:23:24.640Z,-0.80
2023-01-22T02:26:46.219Z,-0.80
2023-01-22T02:30:08.388Z,-0.80
2023-01-22T02:33:29.975Z,-0.80
2023-01-22T02:36:51.665Z,-0.80
2023-01-22T02:40:14.798Z,-0.80
2023-01-22T02:43:36.388Z,-0.70
2023-01-22T02:46:58.031Z,-0.70
2023-01-22T02:50:19.997Z,-0.70
2023-01-22T02:53:41.715Z,-0.70
2023-01-22T02:57:04.710Z,-0.80
2023-01-22T03:00:26.298Z,-0.80
2023-01-22T03:03:48.773Z,-0.70
2023-01-22T03:07:10.356Z,-0.70
2023-01-22T03:10:31.953Z,-0.70
2023-01-22T03:13:54.987Z,-0.80
2023-01-22T03:17:16.564Z,-0.70
2023-01-22T03:20:38.134Z,-0.70
2023-01-22T03:23:59.711Z,-0.70
2023-01-22T03:27:22.149Z,-0.70
2023-01-22T03:30:45.069Z,-0.70
2023-01-22T03:34:06.886Z,-0.70
2023-01-22T03:37:28.435Z,-0.60
2023-01-22T03:40:49.996Z,-0.70
2023-01-22T03:44:11.657Z,-0.70
2023-01-22T03:47:34.648Z,-0.70
2023-01-22T03:50:56.302Z,-0.60
2023-01-22T03:54:18.036Z,-0.60
2023-01-22T03:57:39.903Z,-0.60
2023-01-22T04:01:02.192Z,-0.60
2023-01-22T04:04:25.185Z,-0.60
2023-01-22T04:07:48.444Z,-0.60
2023-01-22T04:11:10.187Z,-0.60
2023-01-22T04:14:31.804Z,-0.60
2023-01-22T04:17:53.374Z,-0.60
2023-01-22T04:21:16.310Z,-0.60
2023-01-22T04:24:37.905Z,-0.60
2023-01-22T04:27:59.514Z,-0.60
2023-01-22T04:31:21.377Z,-0.60
2023-01-22T04:34:43.098Z,-0.60
2023-01-22T04:38:06.697Z,-0.60
2023-01-22T04:41:28.269Z,-0.50
2023-01-22T04:44:49.825Z,-0.50
2023-01-22T04:48:11.550Z,-0.60
2023-01-22T04:51:33.166Z,-0.50
2023-01-22T04:54:56.064Z,-0.50
2023-01-22T04:58:17.640Z,-0.40
2023-01-22T05:01:39.360Z,-0.50
2023-01-22T05:05:00.987Z,-0.50
2023-01-22T05:08:22.572Z,-0.50
2023-01-22T05:11:45.550Z,-0.50
2023-01-22T05:15:22.448Z,-0.40
2023-01-22T05:18:45.450Z,-0.40
2023-01-22T05:22:07.113Z,-0.40
2023-01-22T05:25:28.855Z,-0.40
2023-01-22T05:28:51.785Z,-0.50
2023-01-22T05:32:13.381Z,-0.40
2023-01-22T05:35:34.956Z,-0.40
2023-01-22T05:38:56.540Z,-0.40
2023-01-22T05:42:18.142Z,-0.40
2023-01-22T05:45:41.288Z,-0.40
2023-01-22T05:49:03.202Z,-0.40
2023-01-22T05:52:24.862Z,-0.40
2023-01-22T05:55:46.432Z,-0.40
2023-01-22T05:59:08.056Z,-0.40
2023-01-22T06:02:31.033Z,-0.40
2023-01-22T06:05:58.862Z,-0.40
2023-01-22T06:09:20.443Z,-0.30
2023-01-22T06:12:42.108Z,-0.30
2023-01-22T06:16:03.838Z,-0.30
2023-01-22T06:19:26.750Z,-0.40
2023-01-22T06:22:50.735Z,-0.40
2023-01-22T06:26:12.310Z,-0.40
2023-01-22T06:29:33.873Z,-0.40
2023-01-22T06:32:55.422Z,-0.40
2023-01-22T06:36:18.375Z,-0.40
2023-01-22T06:39:39.949Z,-0.40
2023-01-22T06:43:02.017Z,-0.30
2023-01-22T06:46:23.644Z,-0.30
2023-01-22T06:49:45.251Z,-0.30
2023-01-22T06:53:08.175Z,-0.30
2023-01-22T06:56:29.767Z,-0.40
2023-01-22T06:59:51.357Z,-0.30
2023-01-22T07:03:14.923Z,-0.30
2023-01-22T07:06:36.540Z,-0.40
2023-01-22T07:09:59.494Z,-0.30
2023-01-22T07:13:21.220Z,-0.40
2023-01-22T07:16:42.862Z,-0.30
2023-01-22T07:20:04.926Z,-0.30
2023-01-22T07:23:26.508Z,-0.30
2023-01-22T07:26:49.507Z,-0.30
2023-01-22T07:30:11.571Z,-0.30
2023-01-22T07:33:33.158Z,-0.20
2023-01-22T07:36:54.769Z,-0.20
2023-01-22T07:40:16.881Z,-0.10
2023-01-22T07:43:40.093Z,-0.10
2023-01-22T07:47:01.654Z,0.00
2023-01-22T07:50:24.075Z,0.10
2023-01-22T07:53:45.667Z,0.10
2023-01-22T07:57:07.214Z,0.20
2023-01-22T08:00:30.288Z,0.20
2023-01-22T08:03:51.878Z,0.20
2023-01-22T08:07:14.906Z,0.30
2023-01-22T08:10:37.836Z,0.30
2023-01-22T08:13:59.725Z,0.40
2023-01-22T08:17:22.708Z,0.40
2023-01-22T08:20:44.513Z,0.50
2023-01-22T08:24:06.516Z,0.60
2023-01-22T08:27:28.567Z,0.60
2023-01-22T08:30:50.759Z,0.70
2023-01-22T08:34:13.911Z,0.70
2023-01-22T08:37:35.491Z,0.80
2023-01-22T08:40:57.064Z,0.70
2023-01-22T08:44:18.659Z,0.70
2023-01-22T08:47:40.399Z,0.70
2023-01-22T08:51:03.529Z,0.80
2023-01-22T08:54:25.206Z,0.90
2023-01-22T08:57:51.732Z,1.00
2023-01-22T09:01:16.457Z,1.10
2023-01-22T09:04:40.308Z,1.10
2023-01-22T09:08:03.535Z,1.10
2023-01-22T09:11:25.090Z,1.10
2023-01-22T09:14:46.700Z,1.20
2023-01-22T09:18:08.307Z,1.20
2023-01-22T09:21:29.916Z,1.20
2023-01-22T09:24:52.905Z,1.40
2023-01-22T09:28:14.687Z,1.50
2023-01-22T09:31:36.852Z,1.80
2023-01-22T09:34:58.515Z,2.00
2023-01-22T09:38:20.154Z,2.00
2023-01-22T09:41:45.165Z,2.10
2023-01-22T09:45:09.873Z,2.10
2023-01-22T09:48:34.824Z,2.10
2023-01-22T09:51:57.832Z,2.20
2023-01-22T09:55:21.052Z,2.20
2023-01-22T09:58:44.698Z,2.20
2023-01-22T10:02:14.525Z,2.20
2023-01-22T10:05:37.878Z,2.00
2023-01-22T10:09:03.701Z,2.00
2023-01-22T10:12:27.124Z,2.00
2023-01-22T10:15:51.438Z,2.00
2023-01-22T10:19:17.960Z,2.00
2023-01-22T10:22:39.861Z,2.00
2023-01-22T10:26:07.350Z,1.80
2023-01-22T10:29:31.169Z,1.90
2023-01-22T10:33:01.630Z,1.90
2023-01-22T10:36:26.723Z,1.90
2023-01-22T10:39:48.495Z,1.90
2023-01-22T10:43:10.980Z,1.80
2023-01-22T10:46:33.007Z,1.80
2023-01-22T10:50:16.383Z,1.70
2023-01-22T10:53:39.498Z,1.90
2023-01-22T10:57:05.254Z,1.90
2023-01-22T11:00:33.031Z,2.00
2023-01-22T11:04:10.917Z,2.00
2023-01-22T11:07:35.248Z,2.00
2023-01-22T11:10:59.442Z,1.90
2023-01-22T11:14:23.232Z,2.00
2023-01-22T11:17:48.311Z,1.90
2023-01-22T11:21:12.987Z,1.90
2023-01-22T11:24:38.797Z,2.00
2023-01-22T11:28:05.663Z,2.10
2023-01-22T11:31:32.699Z,2.00
2023-01-22T11:34:58.246Z,2.20
2023-01-22T11:38:23.462Z,2.30
2023-01-22T11:41:56.391Z,2.40
2023-01-22T11:45:26.662Z,2.40
2023-01-22T11:48:54.841Z,2.70
2023-01-22T11:52:24.563Z,2.70
2023-01-22T11:55:57.565Z,2.80
2023-01-22T11:59:26.139Z,2.80
2023-01-22T12:03:09.429Z,2.80
2023-01-22T12:06:40.362Z,2.70
2023-01-22T12:10:17.910Z,2.80
2023-01-22T12:13:49.665Z,2.70
2023-01-22T12:17:24.883Z,2.80
2023-01-22T12:21:04.958Z,2.70
2023-01-22T12:24:29.351Z,2.80
2023-01-22T12:27:53.847Z,2.70
2023-01-22T12:31:17.118Z,2.60
2023-01-22T12:34:42.230Z,2.60
2023-01-22T12:38:10.530Z,2.60
2023-01-22T12:41:39.491Z,2.70
2023-01-22T12:45:06.058Z,2.60
2023-01-22T12:48:30.965Z,2.60
2023-01-22T12:51:54.466Z,2.50
2023-01-22T12:55:27.813Z,2.40
2023-01-22T12:58:55.356Z,2.30
2023-01-22T13:02:21.921Z,2.20
2023-01-22T13:05:43.585Z,2.10
2023-01-22T13:09:07.553Z,2.00
2023-01-22T13:12:35.243Z,2.00
2023-01-22T13:15:59.416Z,2.00
2023-01-22T13:19:22.442Z,2.10
2023-01-22T13:22:44.292Z,2.00
2023-01-22T13:26:07.674Z,2.00
2023-01-22T13:29:31.476Z,2.00
2023-01-22T13:33:03.427Z,1.90
2023-01-22T13:36:25.314Z,1.90
2023-01-22T13:39:46.998Z,1.90
2023-01-22T13:43:13.808Z,1.80
2023-01-22T13:46:36.369Z,1.70
2023-01-22T13:49:58.219Z,1.70
2023-01-22T13:53:23.199Z,1.80
2023-01-22T13:56:45.044Z,1.80
2023-01-22T14:00:21.350Z,1.80
2023-01-22T14:03:42.910Z,1.90
2023-01-22T14:07:04.703Z,1.90
2023-01-22T14:10:26.379Z,2.00
2023-01-22T14:13:49.339Z,1.90
2023-01-22T14:17:21.032Z,1.90
2023-01-22T14:20:43.128Z,1.90
2023-01-22T14:24:05.276Z,1.90
2023-01-22T14:27:27.960Z,1.70
2023-01-22T14:30:50.014Z,1.70
2023-01-22T14:34:13.037Z,1.60
2023-01-22T14:37:34.643Z,1.60
2023-01-22T14:40:56.224Z,1.50
2023-01-22T14:44:17.966Z,1.50
2023-01-22T14:47:39.705Z,1.50
2023-01-22T14:51:06.985Z,1.50
2023-01-22T14:54:28.584Z,1.40
2023-01-22T14:57:50.283Z,1.50
2023-01-22T15:01:15.541Z,1.40
2023-01-22T15:04:38.837Z,1.50
2023-01-22T15:08:01.912Z,1.50
2023-01-22T15:11:23.565Z,1.50
2023-01-22T15:14:45.209Z,1.50
2023-01-22T15:18:06.820Z,1.50
2023-01-22T15:21:28.508Z,1.50
2023-01-22T15:24:51.635Z,1.40
2023-01-22T15:28:13.239Z,1.40
2023-01-22T15:31:35.025Z,1.40
2023-01-22T15:34:56.847Z,1.40
2023-01-22T15:38:18.504Z,1.40
2023-01-22T15:41:41.472Z,1.40
2023-01-22T15:45:03.720Z,1.40
2023-01-22T15:48:25.980Z,1.40
2023-01-22T15:51:47.620Z,1.40
2023-01-22T15:55:09.716Z,1.30
2023-01-22T15:58:32.806Z,1.30
2023-01-22T16:01:54.414Z,1.30
2023-01-22T16:05:16.058Z,1.30
2023-01-22T16:08:37.843Z,1.30
2023-01-22T16:11:59.415Z,1.20
2023-01-22T16:15:22.564Z,1.30
2023-01-22T16:18:44.661Z,1.30
2023-01-22T16:22:06.342Z,1.30
2023-01-22T16:25:27.934Z,1.20
2023-01-22T16:28:50.883Z,1.10
2023-01-22T16:32:13.824Z,1.10
2023-01-22T16:35:35.484Z,1.10
2023-01-22T16:38:57.097Z,1.10
2023-01-22T16:42:18.715Z,1.10
2023-01-22T16:45:40.310Z,1.10
2023-01-22T16:49:04.095Z,1.10
2023-01-22T16:52:25.684Z,1.10
2023-01-22T16:55:47.363Z,1.00
2023-01-22T16:59:08.989Z,1.00
2023-01-22T17:02:31.053Z,0.90
2023-01-22T17:05:53.974Z,1.00
2023-01-22T17:09:16.716Z,1.00
2023-01-22T17:12:38.308Z,1.00
2023-01-22T17:16:03.156Z,1.00
2023-01-22T17:19:25.005Z,1.10
2023-01-22T17:22:47.941Z,1.00
2023-01-22T17:26:10.796Z,1.00
2023-01-22T17:29:32.666Z,1.00
2023-01-22T17:32:54.227Z,1.00
2023-01-22T17:36:17.384Z,1.00
2023-01-22T17:39:40.381Z,1.00
2023-01-22T17:43:01.964Z,1.00
2023-01-22T17:46:24.483Z,1.00
2023-01-22T17:49:48.113Z,1.00
2023-01-22T17:53:09.835Z,1.00
2023-01-22T17:56:33.788Z,1.00
2023-01-22T17:59:55.461Z,0.90
2023-01-22T18:03:17.045Z,0.90
2023-01-22T18:06:39.412Z,0.90
2023-01-22T18:10:00.980Z,1.00
2023-01-22T18:13:23.999Z,0.90
2023-01-22T18:16:45.593Z,0.90
2023-01-22T18:20:07.693Z,0.90
2023-01-22T18:23:29.411Z,0.90
2023-01-22T18:26:51.001Z,0.80
2023-01-22T18:30:14.238Z,0.80
2023-01-22T18:33:36.332Z,0.80
2023-01-22T18:36:58.274Z,0.90
2023-01-22T18:40:19.945Z,0.80
2023-01-22T18:43:41.667Z,0.80
2023-01-22T18:47:04.653Z,0.80
2023-01-22T18:50:26.327Z,0.80
2023-01-22T18:53:48.202Z,0.80
2023-01-22T18:57:09.901Z,0.80
2023-01-22T19:00:31.814Z,0.70
2023-01-22T19:03:55.903Z,0.70
2023-01-22T19:07:17.464Z,0.70
2023-01-22T19:10:39.060Z,0.60
2023-01-22T19:14:01.444Z,0.50
2023-01-22T19:17:23.158Z,0.50
2023-01-22T19:20:46.104Z,0.40
2023-01-22T19:24:08.061Z,0.40
2023-01-22T19:27:30.157Z,0.30
2023-01-22T19:30:51.845Z,0.20
2023-01-22T19:34:14.027Z,0.20
2023-01-22T19:37:36.955Z,0.20
2023-01-22T19:40:58.533Z,0.20
2023-01-22T19:44:20.363Z,0.20
2023-01-22T19:47:41.961Z,0.20
2023-01-22T19:51:04.384Z,0.20
2023-01-22T19:54:27.382Z,0.20
2023-01-22T19:57:48.962Z,0.30
2023-01-22T20:01:11.424Z,0.30
2023-01-22T20:04:33.171Z,0.30
2023-01-22T20:07:56.082Z,0.30
2023-01-22T20:11:19.070Z,0.40
2023-01-22T20:14:40.874Z,0.40
2023-01-22T20:18:02.454Z,0.40
2023-01-22T20:21:24.598Z,0.40
2023-01-22T20:24:46.212Z,0.40
2023-01-22T20:28:09.284Z,0.50
2023-01-22T20:31:33.215Z,0.40
2023-01-22T20:34:58.200Z,0.40
2023-01-22T20:38:19.803Z,0.50
2023-01-22T20:41:41.833Z,0.40
2023-01-22T20:45:05.839Z,0.40
2023-01-22T20:48:28.161Z,0.40
2023-01-22T20:51:50.126Z,0.40
2023-01-22T20:55:11.732Z,0.40
2023-01-22T20:58:34.041Z,0.40
2023-01-22T21:01:56.988Z,0.40
2023-01-22T21:05:19.024Z,0.40
2023-01-22T21:08:43.064Z,0.40
2023-01-22T21:12:04.943Z,0.40
2023-01-22T21:15:27.866Z,0.40
2023-01-22T21:18:52.726Z,0.50
2023-01-22T21:22:14.282Z,0.50
2023-01-22T21:25:36.079Z,0.50
2023-01-22T21:28:58.763Z,0.50
2023-01-22T21:32:20.367Z,0.50
2023-01-22T21:35:50.432Z,0.60
2023-01-22T21:39:14.641Z,0.60
2023-01-22T21:42:36.464Z,0.60
2023-01-22T21:45:58.848Z,0.60
2023-01-22T21:49:21.186Z,0.60
2023-01-22T21:52:46.056Z,0.60
2023-01-22T21:56:08.367Z,0.60
2023-01-22T21:59:29.940Z,0.60
2023-01-22T22:02:51.971Z,0.60
2023-01-22T22:06:13.990Z,0.60
2023-01-22T22:09:37.043Z,0.60
2023-01-22T22:12:58.635Z,0.60
2023-01-22T22:16:21.067Z,0.60
2023-01-22T22:19:42.657Z,0.60
2023-01-22T22:23:04.231Z,0.60
2023-01-22T22:26:27.196Z,0.60
2023-01-22T22:29:48.776Z,0.60
2023-01-22T22:33:11.051Z,0.60
2023-01-22T22:36:33.018Z,0.60
2023-01-22T22:39:54.633Z,0.60
2023-01-22T22:43:17.573Z,0.60
2023-01-22T22:46:39.609Z,0.60
2023-01-22T22:50:01.190Z,0.60
2023-01-22T22:53:22.783Z,0.60
2023-01-22T22:56:44.439Z,0.60
2023-01-22T23:00:09.213Z,0.60
2023-01-22T23:03:30.900Z,0.50
2023-01-22T23:06:52.549Z,0.60
2023-01-22T23:10:14.165Z,0.60
2023-01-22T23:13:36.456Z,0.60
2023-01-22T23:16:59.438Z,0.50
2023-01-22T23:20:21.627Z,0.60
2023-01-22T23:23:43.272Z,0.60
2023-01-22T23:27:04.852Z,0.60
2023-01-22T23:30:26.448Z,0.60
2023-01-22T23:33:49.899Z,0.60
2023-01-22T23:37:11.484Z,0.60
2023-01-22T23:40:33.064Z,0.60
2023-01-22T23:43:54.678Z,0.50
2023-01-22T23:47:16.266Z,0.50
2023-01-22T23:50:39.201Z,0.50
2023-01-22T23:54:00.790Z,0.50
2023-01-22T23:57:22.401Z,0.40
